Webcam Zuidwest more information Webcam Zuidwest


Onweer radar more information blitzortung!


Regen radar more information rain snow radar


Weerstation Alkmaar Centrum

Weerstation Luyksgestel

Website Noardburgum


U vindt ons ook hier:

Het Weer Aktueel

UK Metoffice

European Weather Network

Weather Underground

AWEKAS

Citizen Weather Observer Program (CWOP)

HAMweather, WeatherForYou, PWS Weather



Het weer levert geen direct gevaar op.    Er zijn geen waarschuwingen afgegeven.

METAR rapporten vliegvelden

   
EHLW - Leeuwarden Rnlaf, Netherlands
Afstand tot: W 17 km
Gewijzigd: 24-09-2020 12:25
Grotendeels bewolkt  
Grotendeels bewolkt  
   Wind: Zuiden 31.5 km/h
Wind: Zuiden 31.5 km/h
Temperatuur: 15°C
Dauwpunt: 10°C
Vochtigheid: 72%
Barometer: 1000 hPa
Bewolking: Grotendeels bewolkt
Zicht: meer dan 10 km
Bewolking: Licht bewolkt 2300 ft,
Gedeeltelijk bewolkt 3200 ft,
Grotendeels bewolkt 3900 ft
EHLW 241025Z AUTO 19017KT 140V230 9999 FEW023 SCT032 BKN039 15/10 Q1000 BLU NOSIG
EHMA - Awg-1 Sea, Netherlands
Afstand tot: N 31 km
Gewijzigd: 24-09-2020 12:25
Wat regen mogelijk, Grotendeels bewolkt  
Wat regen mogelijk, Grotendeels bewolkt  
   Wind: ZZW 53.7 km/h
Wind: ZZW 53.7 km/h
Temperatuur: 14°C
Dauwpunt: 10°C
Vochtigheid: 77%
Barometer: 999 hPa
Bewolking: Grotendeels bewolkt
Zicht: meer dan 10 km
Bewolking: Licht bewolkt 2400 ft,
Gedeeltelijk bewolkt 3100 ft,
Grotendeels bewolkt 4300 ft
EHMA 241025Z AUTO 20029KT 9999 -RA FEW024 SCT031 BKN043 14/10 Q0999 RERA REDZ
EHGG - Groningen/Eelde, Netherlands
Afstand tot: OZO 40 km
Gewijzigd: 24-09-2020 12:25
Grotendeels bewolkt  
Grotendeels bewolkt  
   Wind: ZZW 27.8 km/h
Wind: ZZW 27.8 km/h
Temperatuur: 16°C
Dauwpunt: 9°C
Vochtigheid: 63%
Barometer: 1001 hPa
Bewolking: Grotendeels bewolkt
Zicht: meer dan 10 km
Bewolking: Gedeeltelijk bewolkt 2400 ft,
Grotendeels bewolkt 2800 ft,
Grotendeels bewolkt 3400 ft
EHGG 241025Z AUTO 20015KT 150V230 9999 SCT024 BKN028 BKN034 16/09 Q1001 TEMPO 20018G28KT
EHVL - Vlieland Island, Netherlands
Afstand tot: W 72 km
Gewijzigd: 24-09-2020 12:25
Grotendeels bewolkt  
Grotendeels bewolkt  
   Wind: Zuiden 44.4 km/h
Wind: Zuiden 44.4 km/h
Temperatuur: 15°C
Dauwpunt: 10°C
Vochtigheid: 72%
Barometer: 998 hPa
Bewolking: Grotendeels bewolkt
Zicht: meer dan 10 km
Bewolking: Licht bewolkt 2700 ft,
Gedeeltelijk bewolkt 3300 ft,
Grotendeels bewolkt 5000 ft
EHVL 241025Z AUTO 18024KT 9999 FEW027 SCT033 BKN050 15/10 Q0998 BLU
EHMG - L9-Ff-1 Sea, Netherlands
Afstand tot: WNW 81 km
Gewijzigd: 24-09-2020 12:25
Wat regen mogelijk, Licht bewolkt  
Wat regen mogelijk, Licht bewolkt  
   Wind: ZZW 37 km/h
Wind: ZZW 37 km/h
Temperatuur: 15°C
Dauwpunt: 9°C
Vochtigheid: 68%
Barometer: 998 hPa
Bewolking: Licht bewolkt
Zicht: meer dan 10 km
Bewolking: Licht bewolkt 3000 ft
EHMG 241025Z AUTO 21020KT 9999 -RA FEW030 15/09 Q0998
EHKD - De Kooy (navy), Netherlands
Afstand tot: WZW 89 km
Gewijzigd: 24-09-2020 12:25
Grotendeels bewolkt  
Grotendeels bewolkt  
   Wind: Zuiden 46.3 km/h
Wind: Zuiden 46.3 km/h
Temperatuur: 16°C
Dauwpunt: 10°C
Vochtigheid: 68%
Barometer: 999 hPa
Bewolking: Grotendeels bewolkt
Zicht: meer dan 10 km
Bewolking: Licht bewolkt 2600 ft,
Gedeeltelijk bewolkt 2900 ft,
Grotendeels bewolkt 3300 ft
EHKD 241025Z AUTO 19025KT 170V230 9999 FEW026 SCT029 BKN033 16/10 Q0999 BLU TEMPO 3000 SHRA TSRA SCT012 SCT018CB BKN022

Script ontwikkeld door  Saratoga-weather.org Aangepast voor de template door  Weerstation Leuven

Apparatuur in gebruik:

Weerstation
Davis Vantage pro 2

Weerprogramma
Meteobridge

Weercomputer
TP-Link TL-WR703N

Webleverancier
Versio

Davis Vantage pro 2

Meteobridge

TP-Link TL-WR703N

Versio